sensor_id;sensor_type;location;lat;lon;timestamp;P1;durP1;ratioP1;P2;durP2;ratioP2
75044;SDS011;63614;56.026;35.960;2023-04-16T00:00:47;19.45;;;7.28;;
75044;SDS011;63614;56.026;35.960;2023-04-16T00:03:14;17.80;;;7.03;;
75044;SDS011;63614;56.026;35.960;2023-04-16T00:05:40;20.45;;;6.75;;
75044;SDS011;63614;56.026;35.960;2023-04-16T00:08:06;17.63;;;6.78;;
75044;SDS011;63614;56.026;35.960;2023-04-16T00:10:33;27.50;;;7.70;;
75044;SDS011;63614;56.026;35.960;2023-04-16T00:12:59;21.02;;;6.95;;
75044;SDS011;63614;56.026;35.960;2023-04-16T00:15:25;18.25;;;6.93;;
75044;SDS011;63614;56.026;35.960;2023-04-16T00:17:51;25.58;;;7.72;;
75044;SDS011;63614;56.026;35.960;2023-04-16T00:20:17;20.40;;;7.50;;
75044;SDS011;63614;56.026;35.960;2023-04-16T00:25:10;21.45;;;6.65;;
75044;SDS011;63614;56.026;35.960;2023-04-16T00:27:35;14.13;;;6.72;;
75044;SDS011;63614;56.026;35.960;2023-04-16T00:30:02;14.57;;;7.53;;
75044;SDS011;63614;56.026;35.960;2023-04-16T00:32:31;21.90;;;6.97;;
75044;SDS011;63614;56.026;35.960;2023-04-16T00:34:57;18.30;;;7.28;;
75044;SDS011;63614;56.026;35.960;2023-04-16T00:37:22;18.55;;;7.25;;
75044;SDS011;63614;56.026;35.960;2023-04-16T00:39:49;23.02;;;7.28;;
75044;SDS011;63614;56.026;35.960;2023-04-16T00:42:14;20.73;;;7.05;;
75044;SDS011;63614;56.026;35.960;2023-04-16T00:44:40;18.42;;;7.50;;
75044;SDS011;63614;56.026;35.960;2023-04-16T00:47:06;19.95;;;7.43;;
75044;SDS011;63614;56.026;35.960;2023-04-16T00:49:32;23.75;;;7.15;;
75044;SDS011;63614;56.026;35.960;2023-04-16T00:51:59;22.48;;;7.65;;
75044;SDS011;63614;56.026;35.960;2023-04-16T00:56:52;22.33;;;7.10;;
75044;SDS011;63614;56.026;35.960;2023-04-16T00:59:18;27.58;;;8.55;;
75044;SDS011;63614;56.026;35.960;2023-04-16T01:01:44;16.40;;;6.72;;
75044;SDS011;63614;56.026;35.960;2023-04-16T01:04:10;19.45;;;6.82;;
75044;SDS011;63614;56.026;35.960;2023-04-16T01:06:36;15.60;;;7.20;;
75044;SDS011;63614;56.026;35.960;2023-04-16T01:09:02;29.50;;;7.13;;
75044;SDS011;63614;56.026;35.960;2023-04-16T01:11:28;22.85;;;7.22;;
75044;SDS011;63614;56.026;35.960;2023-04-16T01:13:54;18.75;;;7.63;;
75044;SDS011;63614;56.026;35.960;2023-04-16T01:16:20;19.05;;;7.25;;
75044;SDS011;63614;56.026;35.960;2023-04-16T01:18:46;20.08;;;7.85;;
75044;SDS011;63614;56.026;35.960;2023-04-16T01:21:11;18.25;;;7.32;;
75044;SDS011;63614;56.026;35.960;2023-04-16T01:23:37;19.85;;;7.70;;
75044;SDS011;63614;56.026;35.960;2023-04-16T01:26:03;20.85;;;7.95;;
75044;SDS011;63614;56.026;35.960;2023-04-16T01:28:29;25.70;;;7.22;;
75044;SDS011;63614;56.026;35.960;2023-04-16T01:30:55;14.40;;;6.30;;
75044;SDS011;63614;56.026;35.960;2023-04-16T01:33:45;19.15;;;7.00;;
75044;SDS011;63614;56.026;35.960;2023-04-16T01:36:11;14.27;;;6.30;;
75044;SDS011;63614;56.026;35.960;2023-04-16T01:38:37;17.58;;;6.43;;
75044;SDS011;63614;56.026;35.960;2023-04-16T01:41:03;14.43;;;6.55;;
75044;SDS011;63614;56.026;35.960;2023-04-16T01:43:29;22.58;;;6.47;;
75044;SDS011;63614;56.026;35.960;2023-04-16T01:45:58;13.65;;;5.97;;
75044;SDS011;63614;56.026;35.960;2023-04-16T01:48:38;16.80;;;6.50;;
75044;SDS011;63614;56.026;35.960;2023-04-16T01:51:04;21.20;;;6.90;;
75044;SDS011;63614;56.026;35.960;2023-04-16T01:53:30;20.00;;;5.82;;
75044;SDS011;63614;56.026;35.960;2023-04-16T01:55:56;16.35;;;6.75;;
75044;SDS011;63614;56.026;35.960;2023-04-16T01:58:21;22.48;;;6.38;;
75044;SDS011;63614;56.026;35.960;2023-04-16T02:00:48;18.48;;;6.22;;
75044;SDS011;63614;56.026;35.960;2023-04-16T02:03:14;15.30;;;5.95;;
75044;SDS011;63614;56.026;35.960;2023-04-16T02:05:42;14.52;;;6.13;;
75044;SDS011;63614;56.026;35.960;2023-04-16T02:08:08;19.98;;;7.20;;
75044;SDS011;63614;56.026;35.960;2023-04-16T02:10:34;23.05;;;6.88;;
75044;SDS011;63614;56.026;35.960;2023-04-16T02:13:01;14.70;;;6.35;;
75044;SDS011;63614;56.026;35.960;2023-04-16T02:15:27;15.23;;;5.90;;
75044;SDS011;63614;56.026;35.960;2023-04-16T02:17:53;20.10;;;6.07;;
75044;SDS011;63614;56.026;35.960;2023-04-16T02:20:22;15.25;;;6.10;;
75044;SDS011;63614;56.026;35.960;2023-04-16T02:22:56;21.35;;;5.88;;
75044;SDS011;63614;56.026;35.960;2023-04-16T02:25:23;20.05;;;6.35;;
75044;SDS011;63614;56.026;35.960;2023-04-16T02:27:50;13.68;;;5.78;;
75044;SDS011;63614;56.026;35.960;2023-04-16T02:30:29;12.20;;;5.88;;
75044;SDS011;63614;56.026;35.960;2023-04-16T02:32:55;12.48;;;5.68;;
75044;SDS011;63614;56.026;35.960;2023-04-16T02:35:21;22.98;;;5.90;;
75044;SDS011;63614;56.026;35.960;2023-04-16T02:37:48;12.50;;;5.63;;
75044;SDS011;63614;56.026;35.960;2023-04-16T02:40:14;20.25;;;6.00;;
75044;SDS011;63614;56.026;35.960;2023-04-16T02:42:40;13.13;;;5.85;;
75044;SDS011;63614;56.026;35.960;2023-04-16T02:45:06;12.10;;;5.97;;
75044;SDS011;63614;56.026;35.960;2023-04-16T02:47:33;19.60;;;6.18;;
75044;SDS011;63614;56.026;35.960;2023-04-16T02:49:58;20.15;;;5.65;;
75044;SDS011;63614;56.026;35.960;2023-04-16T02:52:24;11.98;;;5.68;;
75044;SDS011;63614;56.026;35.960;2023-04-16T02:54:50;15.32;;;5.60;;
75044;SDS011;63614;56.026;35.960;2023-04-16T02:57:16;18.73;;;5.88;;
75044;SDS011;63614;56.026;35.960;2023-04-16T02:59:41;19.60;;;5.60;;
75044;SDS011;63614;56.026;35.960;2023-04-16T03:02:07;12.98;;;5.97;;
75044;SDS011;63614;56.026;35.960;2023-04-16T03:04:33;13.45;;;6.03;;
75044;SDS011;63614;56.026;35.960;2023-04-16T03:06:59;18.55;;;5.65;;
75044;SDS011;63614;56.026;35.960;2023-04-16T03:09:25;16.77;;;6.30;;
75044;SDS011;63614;56.026;35.960;2023-04-16T03:11:51;13.50;;;5.68;;
75044;SDS011;63614;56.026;35.960;2023-04-16T03:14:17;20.55;;;5.78;;
75044;SDS011;63614;56.026;35.960;2023-04-16T03:16:43;12.30;;;5.25;;
75044;SDS011;63614;56.026;35.960;2023-04-16T03:19:09;16.55;;;5.88;;
75044;SDS011;63614;56.026;35.960;2023-04-16T03:21:35;10.70;;;5.80;;
75044;SDS011;63614;56.026;35.960;2023-04-16T03:24:01;15.57;;;5.63;;
75044;SDS011;63614;56.026;35.960;2023-04-16T03:26:27;17.23;;;5.85;;
75044;SDS011;63614;56.026;35.960;2023-04-16T03:28:54;18.98;;;6.07;;
75044;SDS011;63614;56.026;35.960;2023-04-16T03:31:22;12.73;;;6.13;;
75044;SDS011;63614;56.026;35.960;2023-04-16T03:33:48;14.55;;;6.07;;
75044;SDS011;63614;56.026;35.960;2023-04-16T03:36:15;24.90;;;6.30;;
75044;SDS011;63614;56.026;35.960;2023-04-16T03:38:41;14.90;;;6.40;;
75044;SDS011;63614;56.026;35.960;2023-04-16T03:41:06;14.75;;;6.30;;
75044;SDS011;63614;56.026;35.960;2023-04-16T03:43:32;13.18;;;5.90;;
75044;SDS011;63614;56.026;35.960;2023-04-16T03:45:58;12.57;;;6.18;;
75044;SDS011;63614;56.026;35.960;2023-04-16T03:48:24;18.08;;;6.13;;
75044;SDS011;63614;56.026;35.960;2023-04-16T03:50:51;15.77;;;6.68;;
75044;SDS011;63614;56.026;35.960;2023-04-16T03:53:19;17.92;;;5.85;;
75044;SDS011;63614;56.026;35.960;2023-04-16T03:55:48;20.20;;;6.07;;
75044;SDS011;63614;56.026;35.960;2023-04-16T03:58:19;13.05;;;6.38;;
75044;SDS011;63614;56.026;35.960;2023-04-16T04:00:46;13.90;;;5.97;;
75044;SDS011;63614;56.026;35.960;2023-04-16T04:05:44;16.48;;;6.00;;
75044;SDS011;63614;56.026;35.960;2023-04-16T04:08:13;14.27;;;6.20;;
75044;SDS011;63614;56.026;35.960;2023-04-16T04:10:40;17.03;;;6.03;;
75044;SDS011;63614;56.026;35.960;2023-04-16T04:13:08;16.67;;;6.13;;
75044;SDS011;63614;56.026;35.960;2023-04-16T04:15:34;13.40;;;6.20;;
75044;SDS011;63614;56.026;35.960;2023-04-16T04:18:00;15.88;;;6.15;;
75044;SDS011;63614;56.026;35.960;2023-04-16T04:20:26;21.23;;;7.03;;
75044;SDS011;63614;56.026;35.960;2023-04-16T04:22:52;15.20;;;6.30;;
75044;SDS011;63614;56.026;35.960;2023-04-16T04:25:21;13.23;;;6.43;;
75044;SDS011;63614;56.026;35.960;2023-04-16T04:27:47;13.32;;;5.55;;
75044;SDS011;63614;56.026;35.960;2023-04-16T04:30:13;16.88;;;6.03;;
75044;SDS011;63614;56.026;35.960;2023-04-16T04:32:40;17.13;;;6.55;;
75044;SDS011;63614;56.026;35.960;2023-04-16T04:35:07;17.57;;;6.70;;
75044;SDS011;63614;56.026;35.960;2023-04-16T04:37:33;15.30;;;6.15;;
75044;SDS011;63614;56.026;35.960;2023-04-16T04:40:06;19.20;;;6.38;;
75044;SDS011;63614;56.026;35.960;2023-04-16T04:42:33;14.63;;;5.80;;
75044;SDS011;63614;56.026;35.960;2023-04-16T04:44:59;10.77;;;5.70;;
75044;SDS011;63614;56.026;35.960;2023-04-16T04:47:31;19.60;;;6.47;;
75044;SDS011;63614;56.026;35.960;2023-04-16T04:49:57;11.63;;;6.28;;
75044;SDS011;63614;56.026;35.960;2023-04-16T04:52:23;13.63;;;6.57;;
75044;SDS011;63614;56.026;35.960;2023-04-16T04:54:49;14.55;;;6.75;;
75044;SDS011;63614;56.026;35.960;2023-04-16T04:57:15;13.90;;;6.60;;
75044;SDS011;63614;56.026;35.960;2023-04-16T04:59:42;16.83;;;6.03;;
75044;SDS011;63614;56.026;35.960;2023-04-16T05:02:09;18.65;;;6.03;;
75044;SDS011;63614;56.026;35.960;2023-04-16T05:04:35;17.23;;;5.85;;
75044;SDS011;63614;56.026;35.960;2023-04-16T05:07:00;10.43;;;6.03;;
75044;SDS011;63614;56.026;35.960;2023-04-16T05:09:27;12.73;;;6.35;;
75044;SDS011;63614;56.026;35.960;2023-04-16T05:11:52;17.92;;;6.68;;
75044;SDS011;63614;56.026;35.960;2023-04-16T05:14:18;21.52;;;6.80;;
75044;SDS011;63614;56.026;35.960;2023-04-16T05:16:44;12.27;;;5.88;;
75044;SDS011;63614;56.026;35.960;2023-04-16T05:19:09;13.52;;;6.13;;
75044;SDS011;63614;56.026;35.960;2023-04-16T05:21:36;17.33;;;6.90;;
75044;SDS011;63614;56.026;35.960;2023-04-16T05:24:02;16.23;;;6.78;;
75044;SDS011;63614;56.026;35.960;2023-04-16T05:26:28;13.50;;;6.15;;
75044;SDS011;63614;56.026;35.960;2023-04-16T05:28:54;13.75;;;6.53;;
75044;SDS011;63614;56.026;35.960;2023-04-16T05:31:19;17.42;;;6.60;;
75044;SDS011;63614;56.026;35.960;2023-04-16T05:33:45;12.63;;;6.15;;
75044;SDS011;63614;56.026;35.960;2023-04-16T05:36:11;15.82;;;5.75;;
75044;SDS011;63614;56.026;35.960;2023-04-16T05:38:37;10.82;;;5.75;;
75044;SDS011;63614;56.026;35.960;2023-04-16T05:41:02;15.18;;;6.53;;
75044;SDS011;63614;56.026;35.960;2023-04-16T05:43:28;16.05;;;6.75;;
75044;SDS011;63614;56.026;35.960;2023-04-16T05:45:54;15.30;;;6.72;;
75044;SDS011;63614;56.026;35.960;2023-04-16T05:48:20;17.40;;;6.93;;
75044;SDS011;63614;56.026;35.960;2023-04-16T05:50:46;12.23;;;6.57;;
75044;SDS011;63614;56.026;35.960;2023-04-16T05:53:12;14.68;;;5.90;;
75044;SDS011;63614;56.026;35.960;2023-04-16T05:55:38;12.60;;;5.85;;
75044;SDS011;63614;56.026;35.960;2023-04-16T05:58:04;12.80;;;5.93;;
75044;SDS011;63614;56.026;35.960;2023-04-16T06:00:31;12.30;;;5.90;;
75044;SDS011;63614;56.026;35.960;2023-04-16T06:02:57;12.43;;;6.40;;
75044;SDS011;63614;56.026;35.960;2023-04-16T06:05:24;24.48;;;6.25;;
75044;SDS011;63614;56.026;35.960;2023-04-16T06:07:51;14.55;;;5.72;;
75044;SDS011;63614;56.026;35.960;2023-04-16T06:10:17;13.45;;;6.00;;
75044;SDS011;63614;56.026;35.960;2023-04-16T06:12:43;14.25;;;6.20;;
75044;SDS011;63614;56.026;35.960;2023-04-16T06:15:09;14.85;;;5.50;;
75044;SDS011;63614;56.026;35.960;2023-04-16T06:17:35;17.70;;;7.40;;
75044;SDS011;63614;56.026;35.960;2023-04-16T06:20:01;16.70;;;6.10;;
75044;SDS011;63614;56.026;35.960;2023-04-16T06:22:30;14.88;;;6.07;;
75044;SDS011;63614;56.026;35.960;2023-04-16T06:24:56;10.80;;;5.28;;
75044;SDS011;63614;56.026;35.960;2023-04-16T06:27:22;10.68;;;4.78;;
75044;SDS011;63614;56.026;35.960;2023-04-16T06:29:48;12.23;;;5.63;;
75044;SDS011;63614;56.026;35.960;2023-04-16T06:32:13;20.27;;;5.80;;
75044;SDS011;63614;56.026;35.960;2023-04-16T06:34:41;12.40;;;5.50;;
75044;SDS011;63614;56.026;35.960;2023-04-16T06:37:07;13.73;;;5.20;;
75044;SDS011;63614;56.026;35.960;2023-04-16T06:39:33;22.88;;;5.50;;
75044;SDS011;63614;56.026;35.960;2023-04-16T06:41:59;12.70;;;5.50;;
75044;SDS011;63614;56.026;35.960;2023-04-16T06:44:25;11.02;;;5.57;;
75044;SDS011;63614;56.026;35.960;2023-04-16T06:46:51;11.38;;;5.70;;
75044;SDS011;63614;56.026;35.960;2023-04-16T06:49:17;14.70;;;5.90;;
75044;SDS011;63614;56.026;35.960;2023-04-16T06:51:42;19.25;;;5.68;;
75044;SDS011;63614;56.026;35.960;2023-04-16T06:54:08;15.45;;;5.88;;
75044;SDS011;63614;56.026;35.960;2023-04-16T06:56:34;11.00;;;5.45;;
75044;SDS011;63614;56.026;35.960;2023-04-16T06:59:02;13.27;;;5.97;;
75044;SDS011;63614;56.026;35.960;2023-04-16T07:01:28;12.68;;;5.25;;
75044;SDS011;63614;56.026;35.960;2023-04-16T07:03:56;15.98;;;6.13;;
75044;SDS011;63614;56.026;35.960;2023-04-16T07:06:22;18.70;;;5.50;;
75044;SDS011;63614;56.026;35.960;2023-04-16T07:08:48;12.55;;;5.70;;
75044;SDS011;63614;56.026;35.960;2023-04-16T07:11:14;15.75;;;5.25;;
75044;SDS011;63614;56.026;35.960;2023-04-16T07:13:40;19.48;;;6.07;;
75044;SDS011;63614;56.026;35.960;2023-04-16T07:16:06;14.38;;;5.05;;
75044;SDS011;63614;56.026;35.960;2023-04-16T07:18:32;13.82;;;5.28;;
75044;SDS011;63614;56.026;35.960;2023-04-16T07:20:57;13.98;;;5.88;;
75044;SDS011;63614;56.026;35.960;2023-04-16T07:23:23;19.60;;;6.60;;
75044;SDS011;63614;56.026;35.960;2023-04-16T07:25:49;9.77;;;4.80;;
75044;SDS011;63614;56.026;35.960;2023-04-16T07:28:15;15.05;;;5.32;;
75044;SDS011;63614;56.026;35.960;2023-04-16T07:30:42;10.90;;;4.73;;
75044;SDS011;63614;56.026;35.960;2023-04-16T07:33:08;10.50;;;4.45;;
75044;SDS011;63614;56.026;35.960;2023-04-16T07:35:33;7.35;;;3.90;;
75044;SDS011;63614;56.026;35.960;2023-04-16T07:38:00;11.43;;;4.70;;
75044;SDS011;63614;56.026;35.960;2023-04-16T07:40:26;11.88;;;4.50;;
75044;SDS011;63614;56.026;35.960;2023-04-16T07:42:54;8.70;;;4.60;;
75044;SDS011;63614;56.026;35.960;2023-04-16T07:45:20;11.90;;;4.53;;
75044;SDS011;63614;56.026;35.960;2023-04-16T07:47:46;13.38;;;4.70;;
75044;SDS011;63614;56.026;35.960;2023-04-16T07:50:12;12.55;;;4.35;;
75044;SDS011;63614;56.026;35.960;2023-04-16T07:52:38;12.80;;;4.53;;
75044;SDS011;63614;56.026;35.960;2023-04-16T07:57:32;8.00;;;3.88;;
75044;SDS011;63614;56.026;35.960;2023-04-16T07:59:58;10.05;;;4.40;;
75044;SDS011;63614;56.026;35.960;2023-04-16T08:02:26;11.15;;;4.38;;
75044;SDS011;63614;56.026;35.960;2023-04-16T08:04:52;11.27;;;4.40;;
75044;SDS011;63614;56.026;35.960;2023-04-16T08:07:17;14.85;;;5.03;;
75044;SDS011;63614;56.026;35.960;2023-04-16T08:09:47;10.85;;;4.10;;
75044;SDS011;63614;56.026;35.960;2023-04-16T08:12:14;13.80;;;4.53;;
75044;SDS011;63614;56.026;35.960;2023-04-16T08:14:41;8.48;;;4.20;;
75044;SDS011;63614;56.026;35.960;2023-04-16T08:17:07;24.50;;;4.55;;
75044;SDS011;63614;56.026;35.960;2023-04-16T08:19:33;11.00;;;4.70;;
75044;SDS011;63614;56.026;35.960;2023-04-16T08:21:59;18.00;;;4.47;;
75044;SDS011;63614;56.026;35.960;2023-04-16T08:24:25;11.82;;;4.10;;
75044;SDS011;63614;56.026;35.960;2023-04-16T08:26:50;9.13;;;4.03;;
75044;SDS011;63614;56.026;35.960;2023-04-16T08:29:16;11.30;;;4.38;;
75044;SDS011;63614;56.026;35.960;2023-04-16T08:31:42;9.20;;;3.53;;
75044;SDS011;63614;56.026;35.960;2023-04-16T08:34:08;14.05;;;4.50;;
75044;SDS011;63614;56.026;35.960;2023-04-16T08:36:39;13.52;;;4.30;;
75044;SDS011;63614;56.026;35.960;2023-04-16T08:39:05;15.27;;;4.47;;
75044;SDS011;63614;56.026;35.960;2023-04-16T08:41:31;9.10;;;4.15;;
75044;SDS011;63614;56.026;35.960;2023-04-16T08:44:06;14.52;;;4.68;;
75044;SDS011;63614;56.026;35.960;2023-04-16T08:46:34;11.20;;;4.93;;
75044;SDS011;63614;56.026;35.960;2023-04-16T08:49:03;11.30;;;4.45;;
75044;SDS011;63614;56.026;35.960;2023-04-16T08:51:32;12.55;;;4.40;;
75044;SDS011;63614;56.026;35.960;2023-04-16T08:54:04;12.52;;;5.25;;
75044;SDS011;63614;56.026;35.960;2023-04-16T08:56:36;6.72;;;4.10;;
75044;SDS011;63614;56.026;35.960;2023-04-16T08:59:06;13.07;;;4.30;;
75044;SDS011;63614;56.026;35.960;2023-04-16T09:01:34;7.65;;;3.92;;
75044;SDS011;63614;56.026;35.960;2023-04-16T09:04:00;7.15;;;3.97;;
75044;SDS011;63614;56.026;35.960;2023-04-16T09:06:29;8.90;;;4.07;;
75044;SDS011;63614;56.026;35.960;2023-04-16T09:08:55;12.23;;;3.42;;
75044;SDS011;63614;56.026;35.960;2023-04-16T09:11:23;10.43;;;3.22;;
75044;SDS011;63614;56.026;35.960;2023-04-16T09:13:50;10.23;;;3.33;;
75044;SDS011;63614;56.026;35.960;2023-04-16T09:16:16;13.57;;;4.53;;
75044;SDS011;63614;56.026;35.960;2023-04-16T09:18:44;8.93;;;3.63;;
75044;SDS011;63614;56.026;35.960;2023-04-16T09:21:12;8.32;;;3.67;;
75044;SDS011;63614;56.026;35.960;2023-04-16T09:23:38;9.43;;;3.33;;
75044;SDS011;63614;56.026;35.960;2023-04-16T09:26:05;12.43;;;4.90;;
75044;SDS011;63614;56.026;35.960;2023-04-16T09:28:40;11.23;;;4.10;;
75044;SDS011;63614;56.026;35.960;2023-04-16T09:31:17;7.53;;;3.60;;
75044;SDS011;63614;56.026;35.960;2023-04-16T09:33:59;10.80;;;3.92;;
75044;SDS011;63614;56.026;35.960;2023-04-16T09:36:27;12.43;;;3.90;;
75044;SDS011;63614;56.026;35.960;2023-04-16T09:38:53;6.88;;;3.70;;
75044;SDS011;63614;56.026;35.960;2023-04-16T09:41:23;8.10;;;3.58;;
75044;SDS011;63614;56.026;35.960;2023-04-16T09:43:53;7.80;;;3.72;;
75044;SDS011;63614;56.026;35.960;2023-04-16T09:46:29;18.73;;;3.65;;
75044;SDS011;63614;56.026;35.960;2023-04-16T09:49:03;8.73;;;3.58;;
75044;SDS011;63614;56.026;35.960;2023-04-16T09:51:35;11.90;;;3.90;;
75044;SDS011;63614;56.026;35.960;2023-04-16T09:54:03;8.73;;;3.85;;
75044;SDS011;63614;56.026;35.960;2023-04-16T09:58:55;8.15;;;3.40;;
75044;SDS011;63614;56.026;35.960;2023-04-16T10:01:23;12.20;;;3.90;;
75044;SDS011;63614;56.026;35.960;2023-04-16T10:03:49;9.38;;;3.85;;
75044;SDS011;63614;56.026;35.960;2023-04-16T10:06:16;6.25;;;3.35;;
75044;SDS011;63614;56.026;35.960;2023-04-16T10:08:49;8.57;;;3.33;;
75044;SDS011;63614;56.026;35.960;2023-04-16T10:11:17;15.35;;;3.78;;
75044;SDS011;63614;56.026;35.960;2023-04-16T10:13:44;7.47;;;3.63;;
75044;SDS011;63614;56.026;35.960;2023-04-16T10:16:11;10.65;;;4.15;;
75044;SDS011;63614;56.026;35.960;2023-04-16T10:18:38;13.07;;;3.53;;
75044;SDS011;63614;56.026;35.960;2023-04-16T10:21:05;7.95;;;3.45;;
75044;SDS011;63614;56.026;35.960;2023-04-16T10:23:32;11.70;;;3.83;;
75044;SDS011;63614;56.026;35.960;2023-04-16T10:25:59;6.55;;;3.55;;
75044;SDS011;63614;56.026;35.960;2023-04-16T10:28:26;8.43;;;3.55;;
75044;SDS011;63614;56.026;35.960;2023-04-16T10:30:54;43.10;;;4.93;;
75044;SDS011;63614;56.026;35.960;2023-04-16T10:33:26;8.77;;;3.22;;
75044;SDS011;63614;56.026;35.960;2023-04-16T10:36:08;8.20;;;3.38;;
75044;SDS011;63614;56.026;35.960;2023-04-16T10:38:36;7.53;;;3.47;;
75044;SDS011;63614;56.026;35.960;2023-04-16T10:41:04;7.53;;;3.75;;
75044;SDS011;63614;56.026;35.960;2023-04-16T10:43:38;7.60;;;3.47;;
75044;SDS011;63614;56.026;35.960;2023-04-16T10:46:23;6.72;;;3.67;;
75044;SDS011;63614;56.026;35.960;2023-04-16T10:49:02;7.32;;;3.75;;
75044;SDS011;63614;56.026;35.960;2023-04-16T10:51:40;9.35;;;3.83;;
75044;SDS011;63614;56.026;35.960;2023-04-16T10:56:41;14.13;;;3.60;;
75044;SDS011;63614;56.026;35.960;2023-04-16T10:59:09;8.57;;;3.80;;
75044;SDS011;63614;56.026;35.960;2023-04-16T11:01:36;11.27;;;3.60;;
75044;SDS011;63614;56.026;35.960;2023-04-16T11:12:38;9.73;;;3.25;;
75044;SDS011;63614;56.026;35.960;2023-04-16T11:15:07;6.72;;;3.20;;
75044;SDS011;63614;56.026;35.960;2023-04-16T11:17:45;10.55;;;3.20;;
75044;SDS011;63614;56.026;35.960;2023-04-16T11:22:42;14.27;;;3.67;;
75044;SDS011;63614;56.026;35.960;2023-04-16T11:25:10;8.98;;;3.25;;
75044;SDS011;63614;56.026;35.960;2023-04-16T11:27:36;9.85;;;3.40;;
75044;SDS011;63614;56.026;35.960;2023-04-16T11:30:06;7.38;;;3.55;;
75044;SDS011;63614;56.026;35.960;2023-04-16T11:32:36;8.88;;;3.67;;
75044;SDS011;63614;56.026;35.960;2023-04-16T11:37:37;11.43;;;3.10;;
75044;SDS011;63614;56.026;35.960;2023-04-16T11:40:03;6.32;;;3.35;;
75044;SDS011;63614;56.026;35.960;2023-04-16T11:42:34;6.95;;;3.10;;
75044;SDS011;63614;56.026;35.960;2023-04-16T11:45:07;13.88;;;3.72;;
75044;SDS011;63614;56.026;35.960;2023-04-16T11:47:45;15.65;;;3.50;;
75044;SDS011;63614;56.026;35.960;2023-04-16T11:52:47;11.43;;;3.80;;
75044;SDS011;63614;56.026;35.960;2023-04-16T11:55:13;6.55;;;3.58;;
75044;SDS011;63614;56.026;35.960;2023-04-16T11:57:39;14.55;;;3.50;;
75044;SDS011;63614;56.026;35.960;2023-04-16T12:00:05;8.05;;;3.15;;
75044;SDS011;63614;56.026;35.960;2023-04-16T12:02:41;9.77;;;3.90;;
75044;SDS011;63614;56.026;35.960;2023-04-16T12:05:33;9.82;;;3.38;;
75044;SDS011;63614;56.026;35.960;2023-04-16T12:08:05;11.65;;;3.35;;
75044;SDS011;63614;56.026;35.960;2023-04-16T12:10:37;9.57;;;3.72;;
75044;SDS011;63614;56.026;35.960;2023-04-16T12:13:18;7.60;;;3.95;;
75044;SDS011;63614;56.026;35.960;2023-04-16T12:15:53;11.27;;;3.25;;
75044;SDS011;63614;56.026;35.960;2023-04-16T12:18:22;8.90;;;3.33;;
75044;SDS011;63614;56.026;35.960;2023-04-16T12:20:50;9.48;;;3.70;;
75044;SDS011;63614;56.026;35.960;2023-04-16T12:23:31;11.48;;;3.83;;
75044;SDS011;63614;56.026;35.960;2023-04-16T12:25:58;13.10;;;3.92;;
75044;SDS011;63614;56.026;35.960;2023-04-16T12:28:35;6.47;;;3.25;;
75044;SDS011;63614;56.026;35.960;2023-04-16T12:31:03;11.73;;;3.72;;
75044;SDS011;63614;56.026;35.960;2023-04-16T12:33:30;8.68;;;3.78;;
75044;SDS011;63614;56.026;35.960;2023-04-16T12:35:56;12.10;;;3.60;;
75044;SDS011;63614;56.026;35.960;2023-04-16T12:38:21;9.18;;;3.80;;
75044;SDS011;63614;56.026;35.960;2023-04-16T12:40:47;7.35;;;3.40;;
75044;SDS011;63614;56.026;35.960;2023-04-16T12:43:13;14.20;;;3.42;;
75044;SDS011;63614;56.026;35.960;2023-04-16T12:45:40;11.90;;;4.22;;
75044;SDS011;63614;56.026;35.960;2023-04-16T12:48:06;10.18;;;3.83;;
75044;SDS011;63614;56.026;35.960;2023-04-16T12:50:32;12.18;;;4.03;;
75044;SDS011;63614;56.026;35.960;2023-04-16T12:52:58;7.75;;;3.80;;
75044;SDS011;63614;56.026;35.960;2023-04-16T12:55:24;8.27;;;3.78;;
75044;SDS011;63614;56.026;35.960;2023-04-16T12:57:50;13.10;;;4.13;;
75044;SDS011;63614;56.026;35.960;2023-04-16T13:00:20;9.27;;;4.00;;
75044;SDS011;63614;56.026;35.960;2023-04-16T13:02:46;8.55;;;3.60;;
75044;SDS011;63614;56.026;35.960;2023-04-16T13:05:12;8.35;;;3.72;;
75044;SDS011;63614;56.026;35.960;2023-04-16T13:07:41;7.97;;;3.75;;
75044;SDS011;63614;56.026;35.960;2023-04-16T13:10:08;14.13;;;3.90;;
75044;SDS011;63614;56.026;35.960;2023-04-16T13:12:34;7.20;;;3.57;;
75044;SDS011;63614;56.026;35.960;2023-04-16T13:15:00;7.38;;;3.47;;
75044;SDS011;63614;56.026;35.960;2023-04-16T13:17:26;11.73;;;3.58;;
75044;SDS011;63614;56.026;35.960;2023-04-16T13:19:52;11.38;;;3.90;;
75044;SDS011;63614;56.026;35.960;2023-04-16T13:22:17;10.73;;;4.13;;
75044;SDS011;63614;56.026;35.960;2023-04-16T13:24:43;9.63;;;3.38;;
75044;SDS011;63614;56.026;35.960;2023-04-16T13:27:10;11.47;;;3.77;;
75044;SDS011;63614;56.026;35.960;2023-04-16T13:29:36;6.57;;;3.65;;
75044;SDS011;63614;56.026;35.960;2023-04-16T13:32:02;11.45;;;3.38;;
75044;SDS011;63614;56.026;35.960;2023-04-16T13:34:28;9.10;;;3.90;;
75044;SDS011;63614;56.026;35.960;2023-04-16T13:36:54;17.15;;;4.22;;
75044;SDS011;63614;56.026;35.960;2023-04-16T13:39:23;13.55;;;3.58;;
75044;SDS011;63614;56.026;35.960;2023-04-16T13:41:49;11.32;;;4.00;;
75044;SDS011;63614;56.026;35.960;2023-04-16T13:44:15;11.20;;;3.50;;
75044;SDS011;63614;56.026;35.960;2023-04-16T13:46:41;12.32;;;3.60;;
75044;SDS011;63614;56.026;35.960;2023-04-16T13:49:12;7.57;;;3.28;;
75044;SDS011;63614;56.026;35.960;2023-04-16T13:51:40;7.95;;;3.42;;
75044;SDS011;63614;56.026;35.960;2023-04-16T13:54:09;8.48;;;3.40;;
75044;SDS011;63614;56.026;35.960;2023-04-16T13:56:34;16.80;;;3.53;;
75044;SDS011;63614;56.026;35.960;2023-04-16T13:59:00;11.15;;;3.92;;
75044;SDS011;63614;56.026;35.960;2023-04-16T14:01:26;9.38;;;3.20;;
75044;SDS011;63614;56.026;35.960;2023-04-16T14:03:53;6.05;;;3.58;;
75044;SDS011;63614;56.026;35.960;2023-04-16T14:06:19;9.33;;;3.47;;
75044;SDS011;63614;56.026;35.960;2023-04-16T14:08:45;9.65;;;3.83;;
75044;SDS011;63614;56.026;35.960;2023-04-16T14:11:11;10.40;;;3.28;;
75044;SDS011;63614;56.026;35.960;2023-04-16T14:13:37;12.52;;;4.03;;
75044;SDS011;63614;56.026;35.960;2023-04-16T14:16:02;12.98;;;3.42;;
75044;SDS011;63614;56.026;35.960;2023-04-16T14:18:28;8.30;;;4.00;;
75044;SDS011;63614;56.026;35.960;2023-04-16T14:20:54;11.25;;;4.40;;
75044;SDS011;63614;56.026;35.960;2023-04-16T14:23:20;14.38;;;3.85;;
75044;SDS011;63614;56.026;35.960;2023-04-16T14:25:46;8.73;;;3.70;;
75044;SDS011;63614;56.026;35.960;2023-04-16T14:30:39;13.13;;;3.75;;
75044;SDS011;63614;56.026;35.960;2023-04-16T14:33:05;12.85;;;4.15;;
75044;SDS011;63614;56.026;35.960;2023-04-16T14:35:32;6.10;;;3.72;;
75044;SDS011;63614;56.026;35.960;2023-04-16T14:38:01;9.65;;;3.97;;
75044;SDS011;63614;56.026;35.960;2023-04-16T14:40:27;7.63;;;3.35;;
75044;SDS011;63614;56.026;35.960;2023-04-16T14:42:53;8.80;;;3.65;;
75044;SDS011;63614;56.026;35.960;2023-04-16T14:45:19;15.80;;;3.47;;
75044;SDS011;63614;56.026;35.960;2023-04-16T14:47:45;5.80;;;3.35;;
75044;SDS011;63614;56.026;35.960;2023-04-16T14:52:39;10.48;;;3.58;;
75044;SDS011;63614;56.026;35.960;2023-04-16T14:55:06;8.60;;;3.53;;
75044;SDS011;63614;56.026;35.960;2023-04-16T14:57:32;6.95;;;3.35;;
75044;SDS011;63614;56.026;35.960;2023-04-16T14:59:59;10.75;;;3.70;;